Time;durP1;ratioP1;P1;durP2;ratioP2;P2;SDS_P1;SDS_P2;PMS_P1;PMS_P2;Temp;Humidity;BMP_temperature;BMP_pressure;BME280_temperature;BME280_humidity;BME280_pressure;Samples;Min_cycle;Max_cycle;Signal;HPM_P1;HPM_P2
2022/05/05 00:00:56;;;;;;;7.68;5.88;;;13.50;99.90;;;;;;4952681;28;20027;-90
2022/05/05 00:03:22;;;;;;;9.10;5.60;;;13.40;99.90;;;;;;4947037;28;20051;-90
2022/05/05 00:05:51;;;;;;;7.78;6.03;;;13.50;99.90;;;;;;4946293;28;20051;-89
2022/05/05 00:08:17;;;;;;;7.93;6.18;;;13.50;99.90;;;;;;4944069;28;20473;-92
2022/05/05 00:16:18;;;;;;;8.93;6.60;;;13.60;99.90;;;;;;4944786;28;20178;-90
2022/05/05 00:18:47;;;;;;;6.35;5.47;;;13.60;99.90;;;;;;4949854;28;20027;-90
2022/05/05 00:21:13;;;;;;;9.93;6.20;;;13.50;99.90;;;;;;4946966;28;20059;-90
2022/05/05 00:23:38;;;;;;;7.43;5.35;;;13.50;99.90;;;;;;4945755;28;20062;-90
2022/05/05 00:26:16;;;;;;;9.13;5.22;;;13.40;99.90;;;;;;4948858;28;20040;-90
2022/05/05 00:29:25;;;;;;;6.28;5.55;;;13.40;99.90;;;;;;4944116;28;20520;-90
2022/05/05 00:31:51;;;;;;;7.32;6.55;;;13.40;99.90;;;;;;4924258;28;20039;-90
2022/05/05 00:34:26;;;;;;;9.70;5.60;;;13.30;99.90;;;;;;4921776;29;20032;-89
2022/05/05 00:36:52;;;;;;;6.10;5.50;;;13.30;99.90;;;;;;4946637;28;20391;-91
2022/05/05 00:39:18;;;;;;;6.30;4.97;;;13.30;99.90;;;;;;4942350;28;20456;-90
2022/05/05 00:41:51;;;;;;;10.23;5.80;;;13.30;99.90;;;;;;4947192;28;20229;-91
2022/05/05 00:44:19;;;;;;;7.72;5.55;;;13.20;99.90;;;;;;4947681;28;20078;-91
2022/05/05 00:46:51;;;;;;;7.40;5.30;;;13.10;99.90;;;;;;4949394;28;20420;-91
2022/05/05 00:49:18;;;;;;;13.50;5.70;;;13.00;99.90;;;;;;4933379;29;20047;-90
2022/05/05 00:51:45;;;;;;;9.60;5.32;;;12.90;99.90;;;;;;4946006;28;20091;-90
2022/05/05 00:54:14;;;;;;;5.68;4.80;;;12.90;99.90;;;;;;4940524;29;20026;-90
2022/05/05 00:56:43;;;;;;;6.90;4.72;;;12.80;99.90;;;;;;4949173;28;20040;-89
2022/05/05 00:59:09;;;;;;;6.90;5.05;;;12.70;99.90;;;;;;4940650;28;20019;-90
2022/05/05 01:01:35;;;;;;;7.70;5.18;;;12.70;99.90;;;;;;4947669;28;20032;-90
2022/05/05 01:04:01;;;;;;;7.55;5.28;;;12.70;99.90;;;;;;4933027;29;20110;-90
2022/05/05 01:06:30;;;;;;;6.47;5.00;;;12.70;99.90;;;;;;4944325;28;20039;-89
2022/05/05 01:08:56;;;;;;;10.50;5.70;;;12.70;99.90;;;;;;4924172;29;20031;-89
2022/05/05 01:11:30;;;;;;;5.93;5.35;;;12.60;99.90;;;;;;4942725;28;20032;-88
2022/05/05 01:14:02;;;;;;;8.38;5.70;;;12.60;99.90;;;;;;4941652;28;20118;-89
2022/05/05 01:16:29;;;;;;;7.60;5.40;;;12.60;99.90;;;;;;4945014;28;20129;-90
2022/05/05 01:18:55;;;;;;;7.95;5.07;;;12.50;99.90;;;;;;4945301;28;20117;-90
2022/05/05 01:21:24;;;;;;;7.80;6.00;;;12.50;99.90;;;;;;4944157;29;20110;-90
2022/05/05 01:24:01;;;;;;;6.70;5.57;;;12.50;99.90;;;;;;4940628;28;20027;-90
2022/05/05 01:29:23;;;;;;;8.18;5.45;;;12.50;99.90;;;;;;4946168;28;20433;-90
2022/05/05 01:31:52;;;;;;;7.13;5.30;;;12.50;99.90;;;;;;4945556;28;20031;-90
2022/05/05 01:34:18;;;;;;;6.95;5.40;;;12.50;99.90;;;;;;4939458;28;20020;-91
2022/05/05 01:36:50;;;;;;;8.27;5.32;;;12.50;99.90;;;;;;4943981;28;20429;-89
2022/05/05 01:39:17;;;;;;;9.93;4.93;;;12.40;99.90;;;;;;4923856;29;20032;-89
2022/05/05 01:41:48;;;;;;;13.18;5.30;;;12.40;99.90;;;;;;4926680;29;20040;-92
2022/05/05 01:44:36;;;;;;;6.78;5.07;;;12.50;99.90;;;;;;4947206;29;20070;-90
2022/05/05 01:47:02;;;;;;;11.70;4.65;;;12.60;99.90;;;;;;4947629;28;20043;-90
2022/05/05 01:49:33;;;;;;;7.38;4.30;;;12.60;99.90;;;;;;4941572;28;20032;-89
2022/05/05 01:52:11;;;;;;;8.20;4.60;;;12.70;99.90;;;;;;4929430;28;20438;-90
2022/05/05 01:54:38;;;;;;;7.65;4.25;;;12.70;99.90;;;;;;4940271;28;20019;-90
2022/05/05 01:57:07;;;;;;;6.75;4.70;;;12.70;99.90;;;;;;4927536;28;20035;-90
2022/05/05 02:00:31;;;;;;;6.55;5.13;;;12.80;99.90;;;;;;4929646;28;20051;-90
2022/05/05 02:02:59;;;;;;;12.80;5.05;;;12.80;99.90;;;;;;4942751;28;20023;-88
2022/05/05 02:08:35;;;;;;;9.68;5.00;;;12.90;99.90;;;;;;4947330;28;20035;-91
2022/05/05 02:11:24;;;;;;;;;;;;;;;;;;;;;
2022/05/05 02:14:20;;;;;;;6.03;5.05;;;12.80;99.90;;;;;;4940173;28;20048;-90
2022/05/05 02:17:30;;;;;;;8.48;5.30;;;12.80;99.90;;;;;;4943459;28;20055;-89
2022/05/05 02:21:09;;;;;;;6.55;5.82;;;12.70;99.90;;;;;;4871244;29;20067;-90
2022/05/05 02:23:25;;;;;;;6.40;5.47;;;12.60;99.90;;;;;;4855861;29;20030;-90
2022/05/05 02:26:41;;;;;;;8.68;5.45;;;12.60;99.90;;;;;;4872151;29;20162;-89
2022/05/05 02:29:10;;;;;;;7.15;6.18;;;12.50;99.90;;;;;;4869093;29;20085;-89
2022/05/05 02:31:54;;;;;;;;;;;;;;;;;;;;;
2022/05/05 02:40:50;;;;;;;6.18;5.00;;;12.80;99.90;;;;;;4943761;28;20034;-90
2022/05/05 02:43:18;;;;;;;8.13;5.40;;;12.70;99.90;;;;;;4952231;28;20105;-88
2022/05/05 02:45:50;;;;;;;6.97;5.45;;;12.70;99.90;;;;;;4942847;28;20074;-90
2022/05/05 02:52:25;;;;;;;7.10;5.07;;;12.70;99.90;;;;;;4944108;28;20090;-90
2022/05/05 02:55:01;;;;;;;6.32;5.25;;;12.70;99.90;;;;;;4944158;28;20031;-91
2022/05/05 02:57:33;;;;;;;7.90;5.95;;;12.70;99.90;;;;;;4941631;28;20182;-89
2022/05/05 03:00:27;;;;;;;13.75;6.13;;;12.70;99.90;;;;;;4950887;28;20086;-90
2022/05/05 03:10:04;;;;;;;7.30;5.70;;;12.60;99.90;;;;;;4938904;28;20091;-90
2022/05/05 03:27:05;;;;;;;10.73;5.32;;;12.50;99.90;;;;;;4805896;29;20099;-94
2022/05/05 03:30:12;;;;;;;;;;;;;;;;;;;;;
2022/05/05 03:40:14;;;;;;;6.20;5.60;;;12.40;99.90;;;;;;4860027;29;20043;-93
2022/05/05 03:49:26;;;;;;;9.20;5.38;;;12.50;99.90;;;;;;4795441;29;20136;-94
2022/05/05 03:52:10;;;;;;;6.30;5.28;;;12.50;99.90;;;;;;4802145;29;20038;-93
2022/05/05 03:54:56;;;;;;;12.48;5.78;;;12.50;99.90;;;;;;4877717;29;20153;-93
2022/05/05 03:57:33;;;;;;;9.93;5.30;;;12.50;99.90;;;;;;4920981;29;20043;-93
2022/05/05 04:00:03;;;;;;;6.93;5.28;;;12.50;99.90;;;;;;4942071;28;20054;-93
2022/05/05 04:02:30;;;;;;;9.23;5.50;;;12.60;99.90;;;;;;4949817;28;20170;-93
2022/05/05 04:04:55;;;;;;;17.00;5.45;;;12.60;99.90;;;;;;4952931;28;20074;-92
2022/05/05 04:07:24;;;;;;;9.95;5.60;;;12.60;99.90;;;;;;4934399;28;20121;-94
2022/05/05 04:09:53;;;;;;;9.43;5.38;;;12.60;99.90;;;;;;4945586;28;20030;-95
2022/05/05 04:12:20;;;;;;;6.88;5.47;;;12.60;99.90;;;;;;4948539;28;20171;-94
2022/05/05 04:14:47;;;;;;;6.55;5.40;;;12.60;99.90;;;;;;4942540;28;20020;-94
2022/05/05 04:17:13;;;;;;;6.97;5.18;;;12.60;99.90;;;;;;4930852;29;20386;-94
2022/05/05 04:19:39;;;;;;;11.35;5.07;;;12.50;99.90;;;;;;4944247;29;20024;-95
2022/05/05 04:22:06;;;;;;;10.52;5.32;;;12.60;99.90;;;;;;4936755;29;20078;-94
2022/05/05 04:24:32;;;;;;;8.13;5.30;;;12.60;99.90;;;;;;4937009;28;20028;-94
2022/05/05 04:26:57;;;;;;;7.40;5.18;;;12.60;99.90;;;;;;4945367;29;20042;-95
2022/05/05 04:29:23;;;;;;;8.38;4.95;;;12.60;99.90;;;;;;4944923;28;20023;-91
2022/05/05 04:31:52;;;;;;;17.10;4.65;;;12.60;99.90;;;;;;4955408;28;20031;-94
2022/05/05 04:34:18;;;;;;;9.77;5.20;;;12.70;99.90;;;;;;4927194;29;20024;-94
2022/05/05 04:36:47;;;;;;;8.52;5.22;;;12.70;99.90;;;;;;4945065;29;20506;-93
2022/05/05 04:39:13;;;;;;;6.57;5.00;;;12.70;99.90;;;;;;4948422;28;20020;-93
2022/05/05 04:41:46;;;;;;;6.13;5.35;;;12.70;99.90;;;;;;4951424;28;20031;-94
2022/05/05 04:44:18;;;;;;;7.45;5.47;;;12.80;99.90;;;;;;4935078;29;20027;-94
2022/05/05 04:46:43;;;;;;;10.85;5.50;;;12.80;99.90;;;;;;4950720;28;20043;-93
2022/05/05 04:49:09;;;;;;;4.82;4.38;;;12.90;99.90;;;;;;4922738;29;20024;-95
2022/05/05 04:51:35;;;;;;;5.13;4.63;;;12.90;99.90;;;;;;4945153;29;20407;-92
2022/05/05 04:54:00;;;;;;;5.97;5.03;;;13.00;99.90;;;;;;4950206;28;20031;-95
2022/05/05 04:56:29;;;;;;;6.85;4.90;;;13.10;99.90;;;;;;4943041;28;20027;-93
2022/05/05 04:58:55;;;;;;;7.57;4.55;;;13.10;99.90;;;;;;4954632;28;20398;-94
2022/05/05 05:04:22;;;;;;;6.85;4.40;;;13.20;99.90;;;;;;4878028;29;20073;-94
2022/05/05 05:07:07;;;;;;;7.78;4.53;;;13.30;99.90;;;;;;4919714;29;20059;-95
2022/05/05 05:09:41;;;;;;;5.07;4.18;;;13.50;99.90;;;;;;4938570;29;20027;-93
2022/05/05 05:12:14;;;;;;;6.20;4.53;;;13.60;99.90;;;;;;4945086;28;20466;-94
2022/05/05 05:14:42;;;;;;;11.35;4.93;;;13.70;99.90;;;;;;4937903;29;20038;-92
2022/05/05 05:17:15;;;;;;;5.10;4.57;;;13.80;99.90;;;;;;4942915;28;20110;-94
2022/05/05 05:19:44;;;;;;;6.18;4.60;;;13.90;99.90;;;;;;4943652;28;20023;-94
2022/05/05 05:22:13;;;;;;;8.70;4.28;;;14.00;99.90;;;;;;4936159;28;20387;-92
2022/05/05 05:24:39;;;;;;;7.05;4.45;;;14.00;99.90;;;;;;4955890;28;20052;-93
2022/05/05 05:27:17;;;;;;;16.30;4.95;;;14.10;99.90;;;;;;4949754;29;20040;-95
2022/05/05 05:29:43;;;;;;;5.95;4.72;;;14.20;99.90;;;;;;4949611;28;20019;-88
2022/05/05 05:32:08;;;;;;;5.75;4.32;;;14.20;99.90;;;;;;4944385;28;20036;-91
2022/05/05 05:35:03;;;;;;;5.05;4.55;;;14.20;99.90;;;;;;4953552;28;20386;-93
2022/05/05 05:37:29;;;;;;;8.15;4.72;;;14.30;99.90;;;;;;4935034;28;20495;-91
2022/05/05 05:39:55;;;;;;;7.28;4.85;;;14.40;99.90;;;;;;4949828;28;20018;-91
2022/05/05 05:42:21;;;;;;;6.90;4.78;;;14.50;99.90;;;;;;4952063;28;20118;-94
2022/05/05 05:44:46;;;;;;;6.25;4.40;;;14.60;99.90;;;;;;4955652;28;20110;-96
2022/05/05 05:47:12;;;;;;;5.75;4.90;;;14.60;99.90;;;;;;4940420;28;20036;-92
2022/05/05 05:49:38;;;;;;;6.25;4.50;;;14.70;99.90;;;;;;4950934;28;20390;-91
2022/05/05 05:52:05;;;;;;;6.70;4.30;;;14.80;99.90;;;;;;4952121;28;20028;-90
2022/05/05 05:54:30;;;;;;;10.80;5.03;;;14.80;99.90;;;;;;4948159;28;20027;-90
2022/05/05 05:56:59;;;;;;;7.93;5.45;;;14.90;99.90;;;;;;4943431;28;20027;-91
2022/05/05 05:59:24;;;;;;;6.88;5.00;;;15.00;99.90;;;;;;4941307;29;20034;-93
2022/05/05 06:04:34;;;;;;;7.07;4.70;;;15.20;99.90;;;;;;4948428;28;20050;-87
2022/05/05 06:07:00;;;;;;;8.93;4.88;;;15.30;99.90;;;;;;4946077;28;20487;-84
2022/05/05 06:09:26;;;;;;;6.85;5.30;;;15.40;99.90;;;;;;4942004;28;20035;-86
2022/05/05 06:11:52;;;;;;;12.98;6.13;;;15.40;99.90;;;;;;4951463;28;20047;-86
2022/05/05 06:14:20;;;;;;;9.95;6.38;;;15.50;99.90;;;;;;4951682;28;20118;-95
2022/05/05 06:16:46;;;;;;;11.85;5.80;;;15.60;99.90;;;;;;4945322;28;20050;-88
2022/05/05 06:19:12;;;;;;;10.95;6.38;;;15.70;99.90;;;;;;4935248;29;20494;-89
2022/05/05 06:21:39;;;;;;;11.73;5.68;;;15.80;99.90;;;;;;4952158;28;20027;-85
2022/05/05 06:24:05;;;;;;;17.80;5.00;;;15.90;99.90;;;;;;4943421;28;20027;-89
2022/05/05 06:26:32;;;;;;;14.90;5.25;;;16.00;99.90;;;;;;4943654;28;20503;-91
2022/05/05 06:28:58;;;;;;;8.25;4.88;;;16.10;99.90;;;;;;4926918;29;20048;-84
2022/05/05 06:31:24;;;;;;;16.40;5.50;;;16.30;99.90;;;;;;4945508;28;20046;-82
2022/05/05 06:33:49;;;;;;;10.65;5.72;;;16.40;99.90;;;;;;4948843;28;20023;-89
2022/05/05 06:36:18;;;;;;;20.92;5.78;;;16.60;99.90;;;;;;4932527;28;20033;-91
2022/05/05 06:38:44;;;;;;;9.77;5.47;;;16.70;99.90;;;;;;4943300;28;20052;-91
2022/05/05 06:41:09;;;;;;;10.73;5.68;;;16.70;99.90;;;;;;4944005;28;20078;-95
2022/05/05 06:43:35;;;;;;;11.27;5.47;;;16.80;99.90;;;;;;4944928;28;20032;-91
2022/05/05 06:46:01;;;;;;;9.60;4.50;;;16.90;99.90;;;;;;4947824;28;20501;-90
2022/05/05 06:48:27;;;;;;;9.23;4.20;;;17.00;99.90;;;;;;4951593;28;20055;-90
2022/05/05 06:50:53;;;;;;;6.82;5.30;;;17.10;99.90;;;;;;4948893;28;20522;-89
2022/05/05 06:53:21;;;;;;;7.45;4.03;;;17.20;99.90;;;;;;4928703;28;20031;-90
2022/05/05 06:55:49;;;;;;;9.40;5.35;;;17.20;99.90;;;;;;4949934;28;20027;-90
2022/05/05 06:58:17;;;;;;;9.65;4.53;;;17.30;99.90;;;;;;4946204;28;20418;-89
2022/05/05 07:03:30;;;;;;;12.93;3.90;;;17.50;99.90;;;;;;4946954;28;20038;-90
2022/05/05 07:05:56;;;;;;;7.82;4.10;;;17.60;99.90;;;;;;4941086;28;20461;-91
2022/05/05 07:08:21;;;;;;;6.43;4.05;;;17.70;99.90;;;;;;4948490;28;20035;-90
2022/05/05 07:10:53;;;;;;;7.72;3.75;;;17.80;99.90;;;;;;4946341;28;20394;-90
2022/05/05 07:13:23;;;;;;;5.68;3.50;;;17.90;99.90;;;;;;4947443;28;20389;-91
2022/05/05 07:15:49;;;;;;;6.88;3.88;;;18.00;99.90;;;;;;4950486;28;20606;-90
2022/05/05 07:18:15;;;;;;;8.07;3.80;;;18.10;99.90;;;;;;4946877;28;20063;-90
2022/05/05 07:20:41;;;;;;;5.50;3.78;;;18.10;99.90;;;;;;4945517;29;20031;-89
2022/05/05 07:23:11;;;;;;;7.28;3.90;;;18.20;99.90;;;;;;4946867;28;20424;-90
2022/05/05 07:25:37;;;;;;;4.50;3.25;;;18.30;99.90;;;;;;4944939;28;20019;-90
2022/05/05 07:28:03;;;;;;;9.52;3.40;;;18.40;99.90;;;;;;4944177;28;20036;-90
2022/05/05 07:30:29;;;;;;;7.38;3.55;;;18.40;99.90;;;;;;4947181;29;20033;-90
2022/05/05 07:32:55;;;;;;;8.30;3.40;;;18.30;99.90;;;;;;4947441;28;20091;-90
2022/05/05 07:35:21;;;;;;;6.22;3.75;;;18.40;99.90;;;;;;4942728;28;20035;-90
2022/05/05 07:37:46;;;;;;;7.45;3.70;;;18.50;99.90;;;;;;4947344;28;20554;-89
2022/05/05 07:40:12;;;;;;;6.70;3.72;;;18.60;99.90;;;;;;4943104;28;20159;-90
2022/05/05 07:42:41;;;;;;;4.55;3.20;;;18.80;99.90;;;;;;4943987;28;20113;-90
2022/05/05 07:45:07;;;;;;;5.78;3.47;;;18.90;99.90;;;;;;4951343;28;20027;-89
2022/05/05 07:47:33;;;;;;;14.70;3.92;;;19.10;99.90;;;;;;4947728;28;20063;-91
2022/05/05 07:50:03;;;;;;;10.05;3.95;;;19.20;99.90;;;;;;4934974;29;20476;-89
2022/05/05 07:52:28;;;;;;;14.75;4.63;;;19.30;99.90;;;;;;4949496;28;20066;-88
2022/05/05 07:54:54;;;;;;;13.75;4.43;;;19.20;99.90;;;;;;4951408;28;20474;-88
2022/05/05 07:57:20;;;;;;;13.77;4.35;;;19.20;99.90;;;;;;4929997;28;20036;-89
2022/05/05 07:59:47;;;;;;;5.70;3.78;;;19.20;99.90;;;;;;4943782;28;20027;-89
2022/05/05 08:02:14;;;;;;;6.45;4.05;;;19.50;99.90;;;;;;4943542;28;20482;-90
2022/05/05 08:04:43;;;;;;;9.02;3.70;;;19.70;99.90;;;;;;4943010;28;20184;-90
2022/05/05 08:07:10;;;;;;;7.38;3.70;;;20.00;99.90;;;;;;4946546;28;20495;-96
2022/05/05 08:09:36;;;;;;;11.00;3.38;;;20.20;99.90;;;;;;4954733;28;20019;-87
2022/05/05 08:12:04;;;;;;;7.57;3.47;;;20.30;99.90;;;;;;4950510;28;20131;-94
2022/05/05 08:14:30;;;;;;;5.97;3.83;;;20.20;99.90;;;;;;4941840;28;20027;-88
2022/05/05 08:16:57;;;;;;;11.50;3.85;;;20.10;99.90;;;;;;4947715;29;20031;-92
2022/05/05 08:19:22;;;;;;;6.15;3.47;;;20.40;99.90;;;;;;4947464;29;20035;-88
2022/05/05 08:21:48;;;;;;;10.13;5.22;;;20.60;99.90;;;;;;4947230;28;20087;-88
2022/05/05 08:29:46;;;;;;;8.63;4.57;;;20.40;99.90;;;;;;4950490;28;20038;-88
2022/05/05 08:32:11;;;;;;;8.13;3.67;;;20.00;99.90;;;;;;4944176;28;20028;-88
2022/05/05 08:34:37;;;;;;;7.78;4.53;;;20.10;99.90;;;;;;4941757;28;20493;-87
2022/05/05 08:37:03;;;;;;;10.00;4.10;;;20.30;99.90;;;;;;4943039;28;20027;-88
2022/05/05 08:39:29;;;;;;;6.80;4.28;;;20.50;99.90;;;;;;4928583;28;20035;-87
2022/05/05 08:41:55;;;;;;;10.85;3.67;;;20.70;99.90;;;;;;4949656;29;20029;-87
2022/05/05 08:44:21;;;;;;;5.95;3.80;;;20.80;99.90;;;;;;4951073;28;20049;-86
2022/05/05 08:46:48;;;;;;;7.75;3.55;;;20.90;99.90;;;;;;4947861;28;20091;-87
2022/05/05 08:49:17;;;;;;;10.10;4.07;;;20.80;99.90;;;;;;4934123;29;20047;-87
2022/05/05 08:51:46;;;;;;;4.63;3.67;;;20.70;99.90;;;;;;4942090;28;20047;-90
2022/05/05 08:54:16;;;;;;;11.35;3.58;;;20.80;99.90;;;;;;4949420;28;20493;-92
2022/05/05 08:56:43;;;;;;;14.48;3.80;;;20.80;99.90;;;;;;4944653;28;20478;-87
2022/05/05 08:59:11;;;;;;;5.82;3.95;;;21.00;99.90;;;;;;4948689;28;20679;-88
2022/05/05 09:01:41;;;;;;;7.65;3.90;;;21.10;99.90;;;;;;4945693;28;20531;-88
2022/05/05 09:04:09;;;;;;;10.45;3.80;;;21.30;99.90;;;;;;4947693;28;20055;-88
2022/05/05 09:06:44;;;;;;;4.88;3.60;;;21.10;99.90;;;;;;4942172;28;20028;-88
2022/05/05 09:09:34;;;;;;;7.32;3.80;;;21.20;99.90;;;;;;4939099;28;20079;-89
2022/05/05 09:12:19;;;;;;;8.45;3.70;;;21.10;99.90;;;;;;4937185;28;20059;-87
2022/05/05 09:14:48;;;;;;;7.88;3.80;;;21.10;99.90;;;;;;4925378;28;20034;-88
2022/05/05 09:17:21;;;;;;;8.90;3.67;;;21.10;99.90;;;;;;4945467;28;20035;-88
2022/05/05 09:19:52;;;;;;;6.75;4.15;;;21.10;99.90;;;;;;4948761;28;20058;-88
2022/05/05 09:22:20;;;;;;;9.38;4.03;;;21.20;99.90;;;;;;4941313;28;20110;-88
2022/05/05 09:24:49;;;;;;;4.15;3.60;;;21.40;99.90;;;;;;4942180;28;20117;-88
2022/05/05 09:27:21;;;;;;;6.05;3.90;;;21.40;99.90;;;;;;4945852;28;20494;-90
2022/05/05 09:30:14;;;;;;;6.97;4.18;;;21.60;99.90;;;;;;4942363;28;20103;-88
2022/05/05 09:32:42;;;;;;;6.20;4.10;;;21.80;99.90;;;;;;4948704;28;20054;-88
2022/05/05 09:35:15;;;;;;;7.47;3.83;;;21.70;99.90;;;;;;4947253;28;20028;-88
2022/05/05 09:37:48;;;;;;;17.77;4.50;;;21.70;99.90;;;;;;4944651;28;20706;-89
2022/05/05 09:40:24;;;;;;;6.88;4.38;;;21.70;99.90;;;;;;4946598;28;20185;-89
2022/05/05 09:42:51;;;;;;;7.90;4.82;;;21.80;99.90;;;;;;4945077;28;20019;-88
2022/05/05 09:45:19;;;;;;;7.45;4.57;;;21.50;99.90;;;;;;4947533;28;20758;-88
2022/05/05 09:47:56;;;;;;;16.52;5.70;;;21.40;99.90;;;;;;4933920;29;20122;-90
2022/05/05 09:50:24;;;;;;;16.13;4.75;;;21.30;99.90;;;;;;4949715;28;20050;-87
2022/05/05 09:58:26;;;;;;;7.80;4.30;;;20.90;99.90;;;;;;4947516;28;20122;-89
2022/05/05 10:01:08;;;;;;;6.25;3.72;;;21.00;99.90;;;;;;4931046;29;20230;-89
2022/05/05 10:04:05;;;;;;;6.50;4.20;;;20.90;99.90;;;;;;4942560;28;20490;-87
2022/05/05 10:06:36;;;;;;;5.20;3.83;;;21.00;99.90;;;;;;4943097;28;20047;-89
2022/05/05 10:09:05;;;;;;;9.90;4.63;;;21.40;99.90;;;;;;4946564;28;20035;-90
2022/05/05 10:11:31;;;;;;;17.48;11.85;;;21.40;99.90;;;;;;4928139;29;20060;-87
2022/05/05 10:14:00;;;;;;;12.88;5.95;;;21.70;99.90;;;;;;4939343;28;20091;-89
2022/05/05 10:16:26;;;;;;;9.13;5.60;;;22.00;99.90;;;;;;4944335;28;20117;-88
2022/05/05 10:18:56;;;;;;;8.48;4.95;;;22.10;99.90;;;;;;4947406;28;20031;-88
2022/05/05 10:21:46;;;;;;;13.68;5.30;;;21.90;99.90;;;;;;4947520;28;20557;-89
2022/05/05 10:24:32;;;;;;;8.63;4.68;;;21.80;99.90;;;;;;4940391;28;20398;-87
2022/05/05 10:27:02;;;;;;;4.93;4.32;;;21.70;99.90;;;;;;4926360;28;20568;-88
2022/05/05 10:29:33;;;;;;;7.28;4.68;;;21.40;99.90;;;;;;4930629;28;20032;-87
2022/05/05 10:32:25;;;;;;;7.15;4.25;;;21.30;99.90;;;;;;4947255;28;20125;-87
2022/05/05 10:35:06;;;;;;;9.23;4.32;;;21.30;99.90;;;;;;4949450;28;20055;-88
2022/05/05 10:37:37;;;;;;;4.40;3.33;;;21.60;99.90;;;;;;4943201;28;20618;-84
2022/05/05 10:40:09;;;;;;;7.32;4.13;;;21.40;99.90;;;;;;4923027;28;20070;-83
2022/05/05 10:42:40;;;;;;;6.95;3.47;;;21.30;99.90;;;;;;4943203;28;20051;-84
2022/05/05 10:45:19;;;;;;;5.63;3.83;;;21.50;99.90;;;;;;4929950;29;20035;-86
2022/05/05 10:48:24;;;;;;;10.07;3.95;;;21.70;99.90;;;;;;4945232;28;20069;-84
2022/05/05 10:50:50;;;;;;;3.83;3.35;;;21.50;99.80;;;;;;4945075;28;20062;-86
2022/05/05 10:53:26;;;;;;;4.07;3.60;;;21.50;99.90;;;;;;4942676;28;20079;-87
2022/05/05 10:55:52;;;;;;;5.53;3.85;;;21.40;99.90;;;;;;4942471;28;20036;-85
2022/05/05 10:58:55;;;;;;;17.25;3.92;;;21.20;99.90;;;;;;4941376;28;20507;-84
2022/05/05 11:01:21;;;;;;;;;;;21.10;99.90;;;;;;4935033;29;20089;-84
2022/05/05 11:04:15;;;;;;;5.68;3.25;;;21.10;99.90;;;;;;4931677;29;19914;-83
2022/05/05 11:06:45;;;;;;;5.50;3.53;;;20.90;99.90;;;;;;4943452;28;20047;-83
2022/05/05 11:09:32;;;;;;;4.95;3.58;;;20.80;99.90;;;;;;4952124;28;20110;-85
2022/05/05 11:12:19;;;;;;;7.97;3.50;;;20.90;99.90;;;;;;4945462;28;20126;-83
2022/05/05 11:23:47;;;;;;;9.50;3.78;;;21.30;99.90;;;;;;4945008;28;20098;-84
2022/05/05 11:26:18;;;;;;;4.32;3.20;;;21.40;99.90;;;;;;4945521;28;20079;-84
2022/05/05 11:28:45;;;;;;;4.03;3.63;;;21.70;99.90;;;;;;4949464;28;20035;-83
2022/05/05 11:31:22;;;;;;;5.65;3.38;;;21.70;99.90;;;;;;4948148;28;20028;-87
2022/05/05 11:34:03;;;;;;;5.85;3.97;;;21.60;99.90;;;;;;4931820;29;20043;-91
2022/05/05 11:36:33;;;;;;;5.38;3.45;;;21.50;99.90;;;;;;4948084;28;20510;-92
2022/05/05 11:38:59;;;;;;;6.50;3.95;;;21.40;99.90;;;;;;4942708;28;20114;-89
2022/05/05 11:41:26;;;;;;;5.88;3.78;;;21.40;99.90;;;;;;4945401;28;20027;-89
2022/05/05 11:46:38;;;;;;;7.68;4.18;;;21.40;99.90;;;;;;4947056;28;20043;-84
2022/05/05 11:49:05;;;;;;;5.97;3.72;;;21.30;99.90;;;;;;4954011;29;20033;-93
2022/05/05 11:51:33;;;;;;;4.65;3.75;;;21.10;99.90;;;;;;4951989;28;20020;-95
2022/05/05 11:54:16;;;;;;;7.70;3.95;;;20.80;99.90;;;;;;4951997;28;20115;-96
2022/05/05 11:56:47;;;;;;;7.50;3.80;;;20.40;99.90;;;;;;4947846;29;20035;-83
2022/05/05 12:02:15;;;;;;;8.30;3.75;;;19.80;99.90;;;;;;4948902;28;20523;-87
2022/05/05 12:04:53;;;;;;;8.90;4.28;;;19.70;99.90;;;;;;4947937;28;20110;-85
2022/05/05 12:07:23;;;;;;;6.60;4.00;;;19.60;99.90;;;;;;4947011;28;20122;-87
2022/05/05 12:10:01;;;;;;;8.43;4.20;;;19.50;99.90;;;;;;4957750;28;20492;-92
2022/05/05 12:12:29;;;;;;;4.95;3.63;;;19.40;99.90;;;;;;4939738;29;20055;-87
2022/05/05 12:15:04;;;;;;;5.13;3.85;;;19.30;99.90;;;;;;4924572;29;20059;-89
2022/05/05 12:17:45;;;;;;;5.68;4.47;;;19.40;99.90;;;;;;4941506;29;20079;-94
2022/05/05 12:20:12;;;;;;;7.20;3.95;;;19.50;99.90;;;;;;4950385;28;20482;-89
2022/05/05 12:22:40;;;;;;;7.35;4.68;;;19.60;99.90;;;;;;4947345;28;20043;-91
2022/05/05 12:25:17;;;;;;;9.10;4.53;;;19.60;99.90;;;;;;4947543;28;20032;-91
2022/05/05 12:27:58;;;;;;;3.78;3.47;;;19.50;99.90;;;;;;4929968;29;20066;-87
2022/05/05 12:30:39;;;;;;;5.60;4.10;;;19.50;99.90;;;;;;4949596;28;20028;-91
2022/05/05 12:33:07;;;;;;;7.80;4.20;;;19.60;99.90;;;;;;4946704;28;20034;-86
2022/05/05 12:35:34;;;;;;;8.68;4.30;;;19.40;99.90;;;;;;4945577;28;20024;-86
2022/05/05 12:38:05;;;;;;;5.47;3.90;;;19.50;99.90;;;;;;4948404;28;20038;-86
2022/05/05 12:40:32;;;;;;;5.95;4.10;;;19.50;99.90;;;;;;4941524;28;20023;-81
2022/05/05 12:43:25;;;;;;;7.80;5.35;;;19.30;99.90;;;;;;4943784;28;20034;-84
2022/05/05 12:45:53;;;;;;;7.80;5.15;;;19.10;99.90;;;;;;4942297;28;20043;-82
2022/05/05 12:48:23;;;;;;;5.72;4.85;;;19.00;99.90;;;;;;4944648;28;20058;-82
2022/05/05 12:50:52;;;;;;;6.88;4.38;;;19.20;99.90;;;;;;4950799;28;20031;-82
2022/05/05 13:01:39;;;;;;;6.10;4.28;;;19.30;99.90;;;;;;4947888;28;20047;-82
2022/05/05 13:04:10;;;;;;;9.23;4.20;;;19.40;99.90;;;;;;4946128;28;20030;-82
2022/05/05 13:06:38;;;;;;;10.38;4.93;;;19.40;99.90;;;;;;4923880;29;20732;-92
2022/05/05 13:09:05;;;;;;;5.68;4.30;;;19.40;99.90;;;;;;4927296;29;20085;-86
2022/05/05 13:11:32;;;;;;;9.60;4.65;;;19.50;99.90;;;;;;4926047;29;20125;-88
2022/05/05 13:13:58;;;;;;;13.00;4.80;;;19.40;99.90;;;;;;4941790;28;20035;-90
2022/05/05 13:16:27;;;;;;;11.68;5.45;;;19.50;99.90;;;;;;4946162;28;20035;-86
2022/05/05 13:18:53;;;;;;;7.05;4.18;;;19.60;99.90;;;;;;4930865;29;20020;-85
2022/05/05 13:21:19;;;;;;;5.13;4.35;;;19.60;99.90;;;;;;4943326;29;20046;-86
2022/05/05 13:23:44;;;;;;;6.90;4.30;;;19.50;99.90;;;;;;4941235;28;20086;-89
2022/05/05 13:26:11;;;;;;;6.72;4.85;;;19.60;99.90;;;;;;4944622;28;20047;-86
2022/05/05 13:28:37;;;;;;;10.38;4.63;;;19.60;99.90;;;;;;4934959;29;20031;-86
2022/05/05 13:31:03;;;;;;;9.68;4.93;;;19.60;99.90;;;;;;4945669;28;20086;-87
2022/05/05 13:33:29;;;;;;;6.60;4.25;;;19.60;99.90;;;;;;4942949;28;20028;-86
2022/05/05 13:35:55;;;;;;;6.85;4.88;;;19.50;99.90;;;;;;4943028;28;20487;-86
2022/05/05 13:38:23;;;;;;;6.65;4.70;;;19.40;99.90;;;;;;4931864;29;20041;-85
2022/05/05 13:40:49;;;;;;;8.38;5.10;;;19.40;99.90;;;;;;4945016;28;20048;-86
2022/05/05 13:43:15;;;;;;;6.53;4.35;;;19.50;99.90;;;;;;4944552;28;20090;-86
2022/05/05 13:45:41;;;;;;;10.93;4.05;;;19.90;99.90;;;;;;4928291;29;20047;-87
2022/05/05 13:48:10;;;;;;;6.78;4.25;;;20.40;99.90;;;;;;4928196;29;20073;-86
2022/05/05 13:50:39;;;;;;;6.45;4.57;;;20.60;99.90;;;;;;4948811;28;20023;-86
2022/05/05 13:53:05;;;;;;;5.95;4.00;;;20.50;99.90;;;;;;4926111;29;20042;-86
2022/05/05 13:55:33;;;;;;;6.70;4.43;;;20.20;99.90;;;;;;4936174;28;20024;-87
2022/05/05 13:58:18;;;;;;;9.07;4.32;;;19.90;99.90;;;;;;4940900;28;20477;-86
2022/05/05 14:00:43;;;;;;;6.85;4.47;;;19.80;99.90;;;;;;4938785;28;20059;-87
2022/05/05 14:03:09;;;;;;;7.97;4.43;;;19.90;99.90;;;;;;4942523;28;20059;-86
2022/05/05 14:05:35;;;;;;;4.70;4.20;;;20.00;99.90;;;;;;4933945;28;20079;-86
2022/05/05 14:13:29;;;;;;;7.80;5.00;;;20.10;99.90;;;;;;4943542;28;20182;-86
2022/05/05 14:15:55;;;;;;;5.40;4.63;;;19.70;99.90;;;;;;4930302;29;20102;-86
2022/05/05 14:18:24;;;;;;;6.80;4.72;;;19.50;99.90;;;;;;4946607;28;20032;-86
2022/05/05 14:20:53;;;;;;;10.57;4.93;;;19.30;99.90;;;;;;4949255;28;20031;-87
2022/05/05 14:23:21;;;;;;;12.70;5.53;;;19.20;99.90;;;;;;4938737;28;20100;-86
2022/05/05 14:25:47;;;;;;;10.32;5.20;;;19.20;99.90;;;;;;4946463;28;20390;-86
2022/05/05 14:28:12;;;;;;;7.85;4.63;;;19.10;99.90;;;;;;4927662;29;20031;-86
2022/05/05 14:30:38;;;;;;;6.22;4.63;;;19.30;99.90;;;;;;4925531;29;20027;-86
2022/05/05 14:33:04;;;;;;;8.82;5.05;;;19.40;99.90;;;;;;4930613;29;20031;-86
2022/05/05 14:35:30;;;;;;;6.35;4.68;;;19.50;99.90;;;;;;4946149;28;20027;-85
2022/05/05 14:37:56;;;;;;;7.28;4.95;;;19.30;99.90;;;;;;4948455;28;20681;-86
2022/05/05 14:40:21;;;;;;;8.15;4.75;;;19.20;99.90;;;;;;4929800;29;20035;-86
2022/05/05 14:42:47;;;;;;;11.93;4.88;;;19.10;99.90;;;;;;4929940;29;20364;-86
2022/05/05 14:45:17;;;;;;;6.32;4.30;;;19.10;99.90;;;;;;4948585;28;20027;-86
2022/05/05 14:47:44;;;;;;;8.88;4.60;;;19.10;99.90;;;;;;4947085;28;20040;-86
2022/05/05 14:50:11;;;;;;;6.72;4.20;;;19.20;99.90;;;;;;4951809;28;20023;-86
2022/05/05 14:52:36;;;;;;;5.82;4.40;;;19.10;99.90;;;;;;4946420;28;20035;-86